Nearby METAR Reports

 

KCPC - Whiteville, North Carolina, USA
Distance from station: NNE 17mi, 28km
Updated: 01/27/2020 11:55am
Mostly cloudy
Mostly cloudy
 Wind from WSW
Wind: WSW 6 mph , 9 km/h
Temperature: 55°F , 13°C
Dew Point: 41°F , 5°C
Humidity: 59%
Barometer: 29.90 inHg , 1012.5 hPa
Clouds: Mostly cloudy
Visibility: 10 miles , 16 km
Cloud details: Mostly cloudy 9500 ft
2020/01/27 16:55 KCPC 271655Z AUTO 25005KT 10SM BKN095 13/05 A2990 RMK AO2 T01300045
KCRE - North Myrtle Bea, South Carolina, USA
Distance from station: SSE 19mi, 31km
Updated: 01/27/2020 11:53am
Overcast
Overcast
 Wind from WSW
Wind: WSW 6 mph , 9 km/h
Temperature: 54°F , 12°C
Dew Point: 43°F , 6°C
Humidity: 67%
Barometer: 29.92 inHg , 1013.2 hPa
Clouds: Overcast
Visibility: 10 miles , 16 km
Cloud details: Few Clouds 4900 ft
Overcast 7500 ft
2020/01/27 16:53 KCRE 271653Z 25005KT 10SM FEW049 OVC075 12/06 A2992 RMK AO1 SLP132 T01220061
 
KHYW - Conway-Horry Cty, South Carolina, USA
Distance from station: SW 22mi, 35km
Updated: 01/27/2020 11:55am
Mostly cloudy
Mostly cloudy
 Wind from SW
Wind: SW 6 mph , 9 km/h
Temperature: 52°F , 11°C
Dew Point: 45°F , 7°C
Humidity: 77%
Barometer: 29.94 inHg , 1013.9 hPa
Clouds: Mostly cloudy
Visibility: 10 miles , 16 km
Cloud details: Mostly cloudy 4600 ft
Mostly cloudy 10000 ft
2020/01/27 16:55 KHYW 271655Z AUTO 22005KT 10SM BKN046 BKN100 11/07 A2994 RMK AO2
KMAO - Marion, South Carolina, USA
Distance from station: WNW 28mi, 45km
Updated: 01/25/2020 12:15am
NOT Current
Light rain, Overcast
Light rain, Overcast
 Wind from WSW
Wind: WSW 5 mph , 7 km/h
Temperature: 57°F , 14°C
Dew Point: 57°F , 14°C
Humidity: 100%
Barometer: 29.92 inHg , 1013.2 hPa
Summary: Light rain
Clouds: Overcast
Visibility: 7 miles , 11 km
Cloud details: Partly cloudy 900 ft
Partly cloudy 1300 ft
Overcast 3500 ft
2020/01/25 05:15 KMAO 250515Z AUTO 24004KT 7SM -RA SCT009 SCT013 OVC035 14/14 A2992 RMK AO2 P0001
 
KMYR - Myrtle Beach, South Carolina, USA
Distance from station: S 28mi, 45km
Updated: 01/27/2020 11:56am
Overcast
Overcast
 Wind from W
Wind: W 9 mph , 15 km/h
Temperature: 54°F , 12°C
Dew Point: 46°F , 8°C
Humidity: 77%
Barometer: 29.94 inHg , 1013.9 hPa
Clouds: Overcast
Visibility: 10 miles , 16 km
Cloud details: Few Clouds 6500 ft
Partly cloudy 8500 ft
Overcast 11000 ft
2020/01/27 16:56 KMYR 271656Z 27008KT 10SM FEW065 SCT085 OVC110 12/08 A2994 RMK AO2 SLP136 T01220078
KLBT - Lumberton, North Carolina, USA
Distance from station: NNW 39mi, 62km
Updated: 03/28/2019 9:55am
NOT Current

 
2019/03/28 13:55 KLBT 281355Z MKT MSM M M M M A0000 M M RMK TEST
 
KSUT - Southport, North Carolina, USA
Distance from station: E 46mi, 74km
Updated: 01/27/2020 11:55am
Partly cloudy
Partly cloudy
 Wind from WSW
Wind: WSW 6 mph , 9 km/h
Temperature: 52°F , 11°C
Dew Point: 43°F , 6°C
Humidity: 72%
Barometer: 29.92 inHg , 1013.2 hPa
Clouds: Partly cloudy
Visibility: 10 miles , 16 km
Cloud details: Partly cloudy 8000 ft
2020/01/27 16:55 KSUT 271655Z AUTO 24005KT 10SM SCT080 11/06 A2992 RMK AO2 T01120063
KFLO - Florence, South Carolina, USA
Distance from station: W 50mi, 81km
Updated: 01/27/2020 11:53am

 
Barometer: 29.93 inHg , 1013.5 hPa
2020/01/27 16:53 KFLO 271653Z A2993 RMK AO2 SLPNO $